ADDS TAF Board (Experimental) INFO

IDs: Format: Expanded Condensed

Updated at: 1205 UTC 28 Nov 2014

KCLT - Charlotte/Douglas In, NC, US

Issued at 1120 UTC 28 Nov 2014
Time1152Z28/13Z28/14Z28/15Z28/16Z28/17Z28/18Z28/19Z28/20Z28/21Z28/22Z28/23Z29/00Z29/01Z
TypeOBSPRVLPRVLPRVLPRVLPRVLPRVLPRVLPRVLPRVLPRVLPRVLPRVLPRVL
VIS10>6>6>6>6>6>6>6>6>6>6>6>6>6
CIG----------------------------
CoverCLRSKCSKCSKCSKCSKCSKCFEWFEWFEWFEWFEWFEWFEW
FltCat--VFRVFRVFRVFRVFRVFRVFRVFRVFRVFRVFRVFRVFR
WX----------------------------
WDir320330330330330330330240240240240240240240
WSpd55555553333333
WGst----------------------------
R05/23
XWnd55555551111111
HWnd0111111-3-3-3-3-3-3-3
R18/36
XWnd-3-2-2-2-2-2-2-3-3-3-3-3-3-3
HWnd-4-4-4-4-4-4-41111111
Raw TAF
KCLT 281120Z 2812/2912 33005KT P6SM SKC
  FM281900 24003KT P6SM FEW200
  FM291000 00000KT P6SM BKN200


Raw METAR
KCLT 281152Z 32005KT 10SM CLR M02/M08 A3034 RMK AO2 SLP278 T10171078 10006 21039 51005

TAF Board Legend

Hazard VFR MVFR IFR LIFR
Visibility (sm) >5 3≤X≤5 1≤X<3 <1
Ceiling (100 ft) >30 10≤X≤30 5≤X<10 <5
Wind Speed (kt) <10 10≤X<20 20≤X<30 ≥30
Wind Gust (kt) <15 15≤X<25 25≤X<35 ≥35
Weather No Wx Reported VCTS,-TS,-FZRA TS,FZRA +TS,+FZRA


Page loaded:  12:05 UTC  |   04:05 AM Pacific  |   05:05 AM Mountain  |   06:05 AM Central  |   07:05 AM Eastern

 

ADVISORIES

FORECASTS

FORECASTS

OBSERVATIONS

USER TOOLS

ABOUT US